Αρχική σελίδα
METAR-TAF:

METAR-TAF

Αεροδρόμια :

Pointe-Noire, Κονγκό

γεωγραφικό πλάτος: 04-49S, γεωγραφικό μήκος: 011-54E, υψόμετρο: 17 μ

Παρών καιρός

Η αναφορά έγινε 57 λεπτά πριν, στις 23:00 UTC
Άνεμος 5 kt από ΝΔ
Θερμοκρασία 25°C
Υγρασία 89%
Πίεση 1011 hPa
Ορατότητα: 8000 μ
Λίγα νέφη σε ύψος 1000 πόδια

METAR: FCPP 212300Z 23005KT 8000 FEW010 25/23 Q1011 NOSIG

Χρόνος: 00:57 (23:57 UTC)

Πρόγνωση Καιρού

Η αναφορά έγινε 57 λεπτά πριν, στις 23:00 UTC
Η πρόγνωση ισχύει από τις 22 στις 00 UTC έως τις 22 στις 24 UTC
Άνεμος 4 kt από ΝΔ
Ορατότητα: 8000 μ
Διάσπαρτα νέφη σε ύψος 1000 πόδια
Αρκετά νέφη σε ύψος 2300 πόδια

TAF: FCPP 212300Z 2200/2224 22004KT 8000 SCT010 BKN023

Μετεωρολογικές αναφορές και προγνώσεις για περισσότερα από 4000 αεροδρόμια (δελτία METAR και TAF).

Οι διαθέσιμοι σταθμοί απεικονίζονται στο χάρτη με κίτρινες και κόκκινες κουκκίδες.

Μετακινήστε το ποντίκι πάνω από τις κουκκίδες για να δείτε το όνομα του σταθμού.

Στη συνέχεια, κάντε κλικ για να δείτε τις μετεωρολογικές αναφορές και τις προγνώσεις καιρού.

Για να αλλάξετε το χάρτη: κάντε κλικ στα πράσινα κουμπιά με τον μαύρο σταυρό για να ζουμάρετε, στο πράσινο κουμπί με την παύλα για να αφαιρέσετε το ζουμ ή στα πράσινα βέλη για να αντιπαραβάλλετε χάρτες.


METAR-TAF: